createdAt,value
2019-03-19T00:01:24.828Z,99.90
2019-03-19T00:03:53.877Z,99.90
2019-03-19T00:06:22.982Z,99.90
2019-03-19T00:08:52.086Z,99.90
2019-03-19T00:11:21.178Z,99.90
2019-03-19T00:13:50.206Z,99.90
2019-03-19T00:16:19.417Z,99.90
2019-03-19T00:18:48.575Z,99.90
2019-03-19T00:21:17.675Z,99.90
2019-03-19T00:23:46.800Z,99.90
2019-03-19T00:26:15.877Z,99.90
2019-03-19T00:28:44.925Z,99.90
2019-03-19T00:31:13.953Z,99.90
2019-03-19T00:33:42.896Z,99.90
2019-03-19T00:36:11.948Z,99.90
2019-03-19T00:38:41.348Z,99.90
2019-03-19T00:41:10.326Z,99.90
2019-03-19T00:43:39.404Z,99.90
2019-03-19T00:46:08.501Z,99.90
2019-03-19T00:48:37.620Z,99.90
2019-03-19T00:51:06.551Z,99.90
2019-03-19T00:53:35.644Z,99.90
2019-03-19T00:56:05.383Z,99.90
2019-03-19T00:58:34.800Z,99.90
2019-03-19T01:01:03.919Z,99.90
2019-03-19T01:03:33.097Z,99.90
2019-03-19T01:06:02.087Z,99.90
2019-03-19T01:08:31.090Z,99.90
2019-03-19T01:11:00.152Z,99.90
2019-03-19T01:13:29.207Z,99.90
2019-03-19T01:15:58.341Z,99.90
2019-03-19T01:18:27.466Z,99.90
2019-03-19T01:20:56.574Z,99.90
2019-03-19T01:23:25.667Z,99.90
2019-03-19T01:25:55.902Z,99.90
2019-03-19T01:28:25.194Z,99.90
2019-03-19T01:30:54.205Z,99.90
2019-03-19T01:33:23.695Z,99.90
2019-03-19T01:35:52.885Z,99.90
2019-03-19T01:38:22.052Z,99.90
2019-03-19T01:40:51.141Z,99.90
2019-03-19T01:43:20.155Z,99.90
2019-03-19T01:45:49.244Z,99.90
2019-03-19T01:48:18.339Z,99.90
2019-03-19T01:50:47.535Z,99.90
2019-03-19T01:53:16.612Z,99.90
2019-03-19T01:55:45.715Z,99.90
2019-03-19T01:58:14.892Z,99.90
2019-03-19T02:00:44.018Z,99.90
2019-03-19T02:03:13.018Z,99.90
2019-03-19T02:05:42.124Z,99.90
2019-03-19T02:08:11.111Z,99.90
2019-03-19T02:10:40.301Z,99.90
2019-03-19T02:13:09.364Z,99.90
2019-03-19T02:15:38.432Z,99.90
2019-03-19T02:18:07.525Z,99.90
2019-03-19T02:20:36.605Z,99.90
2019-03-19T02:23:05.632Z,99.90
2019-03-19T02:25:34.712Z,99.90
2019-03-19T02:28:03.732Z,99.90
2019-03-19T02:30:32.785Z,99.90
2019-03-19T02:33:01.896Z,99.90
2019-03-19T02:35:30.921Z,99.90
2019-03-19T02:38:00.013Z,99.90
2019-03-19T02:40:29.215Z,99.90
2019-03-19T02:42:58.456Z,99.90
2019-03-19T02:45:27.553Z,99.90
2019-03-19T02:47:56.747Z,99.90
2019-03-19T02:50:26.050Z,99.90
2019-03-19T02:52:55.196Z,99.90
2019-03-19T02:55:24.363Z,99.90
2019-03-19T02:57:53.642Z,99.90
2019-03-19T03:00:22.742Z,99.90
2019-03-19T03:06:14.651Z,99.90
2019-03-19T03:11:42.151Z,99.90
2019-03-19T03:14:23.367Z,99.90
2019-03-19T03:22:40.459Z,99.90
2019-03-19T03:28:44.150Z,99.90
2019-03-19T03:42:47.358Z,99.90
2019-03-19T03:45:29.809Z,99.90
2019-03-19T03:48:13.788Z,99.90
2019-03-19T03:53:47.328Z,99.90
2019-03-19T03:59:34.711Z,99.90
2019-03-19T04:02:17.916Z,99.90
2019-03-19T04:05:02.250Z,99.90
2019-03-19T04:07:47.262Z,99.90
2019-03-19T04:16:28.288Z,99.90
2019-03-19T04:19:09.240Z,99.90
2019-03-19T04:27:39.949Z,99.90
2019-03-19T04:38:52.434Z,99.90
2019-03-19T04:41:33.268Z,99.90
2019-03-19T04:44:14.436Z,99.90
2019-03-19T04:46:56.615Z,99.90
2019-03-19T04:49:38.871Z,99.90
2019-03-19T04:55:09.602Z,99.90
2019-03-19T04:57:50.992Z,99.90
2019-03-19T05:00:34.961Z,99.90
2019-03-19T05:06:06.109Z,99.90
2019-03-19T05:11:33.996Z,99.90
2019-03-19T05:14:15.416Z,99.90
2019-03-19T05:19:40.979Z,99.90
2019-03-19T05:34:31.949Z,99.90
2019-03-19T05:40:04.350Z,99.90
2019-03-19T05:45:33.859Z,99.90
2019-03-19T05:48:14.423Z,99.90
2019-03-19T05:50:55.413Z,99.90
2019-03-19T06:01:57.493Z,99.90
2019-03-19T06:07:21.191Z,99.90
2019-03-19T06:12:53.746Z,99.90
2019-03-19T06:15:35.316Z,99.90
2019-03-19T06:24:19.845Z,99.90
2019-03-19T06:30:00.357Z,99.90
2019-03-19T06:41:54.996Z,99.90
2019-03-19T06:50:44.428Z,99.90
2019-03-19T06:53:13.159Z,99.90
2019-03-19T06:56:01.516Z,99.90
2019-03-19T06:58:30.736Z,99.90
2019-03-19T07:01:18.999Z,99.80
2019-03-19T07:04:00.570Z,99.40
2019-03-19T07:06:41.334Z,98.20
2019-03-19T07:09:22.640Z,96.70
2019-03-19T07:12:03.195Z,95.90
2019-03-19T07:14:43.774Z,94.50
2019-03-19T07:17:25.165Z,93.10
2019-03-19T07:20:05.826Z,92.20
2019-03-19T07:22:46.536Z,92.40
2019-03-19T07:25:27.441Z,90.70
2019-03-19T07:28:08.446Z,90.60
2019-03-19T07:30:52.307Z,89.10
2019-03-19T07:33:32.937Z,87.70
2019-03-19T07:36:12.480Z,85.90
2019-03-19T07:39:00.711Z,87.00
2019-03-19T07:41:42.368Z,88.50
2019-03-19T07:44:11.583Z,91.00
2019-03-19T07:46:40.597Z,93.90
2019-03-19T07:49:09.962Z,96.00
2019-03-19T07:51:39.016Z,98.30
2019-03-19T07:54:08.113Z,99.90
2019-03-19T07:56:37.152Z,99.90
2019-03-19T07:59:06.286Z,99.90
2019-03-19T08:01:35.283Z,99.90
2019-03-19T08:04:05.139Z,99.60
2019-03-19T08:06:34.224Z,99.10
2019-03-19T08:09:04.312Z,98.60
2019-03-19T08:11:33.608Z,98.40
2019-03-19T08:14:03.034Z,99.90
2019-03-19T08:16:32.266Z,99.90
2019-03-19T08:19:01.680Z,99.90
2019-03-19T08:21:30.807Z,99.90
2019-03-19T08:24:00.137Z,99.90
2019-03-19T08:26:29.586Z,99.90
2019-03-19T08:28:58.713Z,99.90
2019-03-19T08:31:28.195Z,99.90
2019-03-19T08:33:57.552Z,99.90
2019-03-19T08:36:26.635Z,99.90
2019-03-19T08:38:55.783Z,99.90
2019-03-19T08:41:24.780Z,99.90
2019-03-19T08:43:53.819Z,99.90
2019-03-19T08:46:25.294Z,99.90
2019-03-19T08:48:54.790Z,99.90
2019-03-19T08:51:23.866Z,99.90
2019-03-19T08:53:52.839Z,99.90
2019-03-19T08:56:21.818Z,99.90
2019-03-19T08:58:50.828Z,99.90
2019-03-19T09:01:19.966Z,99.90
2019-03-19T09:03:59.148Z,99.90
2019-03-19T09:06:28.089Z,99.90
2019-03-19T09:08:57.163Z,99.90
2019-03-19T09:11:26.074Z,99.90
2019-03-19T09:13:55.085Z,99.70
2019-03-19T09:16:24.012Z,99.90
2019-03-19T09:18:52.949Z,99.90
2019-03-19T09:21:22.055Z,99.90
2019-03-19T09:23:51.103Z,99.50
2019-03-19T09:26:20.118Z,99.90
2019-03-19T09:28:49.175Z,97.50
2019-03-19T09:31:18.162Z,99.60
2019-03-19T09:33:47.109Z,98.60
2019-03-19T09:36:18.017Z,98.20
2019-03-19T09:38:47.316Z,99.30
2019-03-19T09:41:17.769Z,96.50
2019-03-19T09:43:47.988Z,96.50
2019-03-19T09:46:18.836Z,96.90
2019-03-19T09:48:49.248Z,95.40
2019-03-19T09:51:19.663Z,97.50
2019-03-19T09:53:57.646Z,96.50
2019-03-19T09:56:29.895Z,97.80
2019-03-19T09:59:02.401Z,98.70
2019-03-19T10:01:34.368Z,98.80
2019-03-19T10:04:06.841Z,99.30
2019-03-19T10:06:41.301Z,97.20
2019-03-19T10:09:16.104Z,96.10
2019-03-19T10:11:49.167Z,93.20
2019-03-19T10:14:19.652Z,94.30
2019-03-19T10:16:49.446Z,91.50
2019-03-19T10:19:24.878Z,93.10
2019-03-19T10:21:55.358Z,94.00
2019-03-19T10:24:29.408Z,94.30
2019-03-19T10:27:01.791Z,95.50
2019-03-19T10:29:38.176Z,96.20
2019-03-19T10:32:11.383Z,95.30
2019-03-19T10:34:44.758Z,93.50
2019-03-19T10:37:14.168Z,93.30
2019-03-19T10:39:45.043Z,95.20
2019-03-19T10:42:17.414Z,94.80
2019-03-19T10:44:47.535Z,91.70
2019-03-19T10:47:17.121Z,94.30
2019-03-19T10:49:46.394Z,91.80
2019-03-19T10:52:15.366Z,86.00
2019-03-19T10:54:44.472Z,85.70
2019-03-19T10:57:13.473Z,84.00
2019-03-19T10:59:49.185Z,85.10
2019-03-19T11:02:13.461Z,85.40
2019-03-19T11:04:42.698Z,87.10
2019-03-19T11:07:11.895Z,86.90
2019-03-19T11:09:41.568Z,84.70
2019-03-19T11:12:10.664Z,85.50
2019-03-19T11:14:39.718Z,83.80
2019-03-19T11:17:08.833Z,88.90
2019-03-19T11:19:38.032Z,87.70
2019-03-19T11:22:07.191Z,91.30
2019-03-19T11:24:36.426Z,90.40
2019-03-19T11:27:05.532Z,91.30
2019-03-19T11:29:34.456Z,86.80
2019-03-19T11:32:04.370Z,87.20
2019-03-19T11:34:33.382Z,87.10
2019-03-19T11:37:02.603Z,85.60
2019-03-19T11:39:41.003Z,87.20
2019-03-19T11:42:11.824Z,82.30
2019-03-19T11:44:48.159Z,82.10
2019-03-19T11:47:22.011Z,81.10
2019-03-19T11:49:53.146Z,78.40
2019-03-19T11:52:22.127Z,75.90
2019-03-19T11:54:51.160Z,79.50
2019-03-19T11:57:20.162Z,86.40
2019-03-19T11:59:49.219Z,86.60
2019-03-19T12:02:25.894Z,81.10
2019-03-19T12:04:49.168Z,80.40
2019-03-19T12:07:18.291Z,77.50
2019-03-19T12:09:47.400Z,78.90
2019-03-19T12:12:26.965Z,79.60
2019-03-19T12:14:55.959Z,77.00
2019-03-19T12:17:25.061Z,77.30
2019-03-19T12:19:54.191Z,79.90
2019-03-19T12:22:23.275Z,77.70
2019-03-19T12:24:52.428Z,78.70
2019-03-19T12:27:21.535Z,79.60
2019-03-19T12:29:50.548Z,84.40
2019-03-19T12:32:19.607Z,82.10
2019-03-19T12:34:48.774Z,78.10
2019-03-19T12:37:17.854Z,77.20
2019-03-19T12:39:46.964Z,77.80
2019-03-19T12:42:16.048Z,73.50
2019-03-19T12:44:45.123Z,82.30
2019-03-19T12:47:14.219Z,80.00
2019-03-19T12:49:43.238Z,77.50
2019-03-19T12:52:12.421Z,77.00
2019-03-19T12:54:41.365Z,80.20
2019-03-19T12:57:10.375Z,79.40
2019-03-19T12:59:39.465Z,77.70
2019-03-19T13:02:08.498Z,76.70
2019-03-19T13:04:37.480Z,79.50
2019-03-19T13:07:06.451Z,78.50
2019-03-19T13:09:35.550Z,77.10
2019-03-19T13:12:04.648Z,77.00
2019-03-19T13:14:33.658Z,76.10
2019-03-19T13:17:02.672Z,74.30
2019-03-19T13:19:31.723Z,71.90
2019-03-19T13:22:00.783Z,69.80
2019-03-19T13:24:29.769Z,68.90
2019-03-19T13:26:58.795Z,68.70
2019-03-19T13:29:27.957Z,66.40
2019-03-19T13:31:57.085Z,68.90
2019-03-19T13:34:26.162Z,69.50
2019-03-19T13:36:55.223Z,66.50
2019-03-19T13:39:24.403Z,62.40
2019-03-19T13:41:53.548Z,60.60
2019-03-19T13:44:22.635Z,61.00
2019-03-19T13:46:51.872Z,60.30
2019-03-19T13:49:21.001Z,60.70
2019-03-19T13:51:50.002Z,62.20
2019-03-19T13:54:19.041Z,61.60
2019-03-19T13:56:48.135Z,64.60
2019-03-19T13:59:17.231Z,63.20
2019-03-19T14:01:46.267Z,59.30
2019-03-19T14:04:15.318Z,55.80
2019-03-19T14:06:44.288Z,54.90
2019-03-19T14:09:13.645Z,57.30
2019-03-19T14:11:42.698Z,54.40
2019-03-19T14:14:11.756Z,52.80
2019-03-19T14:16:40.824Z,52.30
2019-03-19T14:19:09.831Z,54.00
2019-03-19T14:21:38.934Z,51.90
2019-03-19T14:24:08.036Z,51.90
2019-03-19T14:26:37.022Z,54.70
2019-03-19T14:29:06.016Z,53.20
2019-03-19T14:31:35.139Z,51.70
2019-03-19T14:34:04.088Z,52.80
2019-03-19T14:36:33.204Z,52.90
2019-03-19T14:39:04.723Z,50.00
2019-03-19T14:41:33.119Z,49.50
2019-03-19T14:44:02.136Z,51.10
2019-03-19T14:46:31.187Z,51.80
2019-03-19T14:49:00.326Z,50.00
2019-03-19T14:51:29.358Z,49.50
2019-03-19T14:53:58.490Z,52.20
2019-03-19T14:56:27.468Z,52.40
2019-03-19T14:58:56.381Z,53.00
2019-03-19T15:01:25.484Z,51.80
2019-03-19T15:03:54.563Z,52.00
2019-03-19T15:06:23.584Z,50.30
2019-03-19T15:08:52.685Z,53.60
2019-03-19T15:11:21.699Z,50.20
2019-03-19T15:13:50.704Z,48.80
2019-03-19T15:16:19.931Z,49.50
2019-03-19T15:18:49.040Z,49.10
2019-03-19T15:21:18.751Z,49.10
2019-03-19T15:23:47.756Z,48.50
2019-03-19T15:26:16.762Z,49.30
2019-03-19T15:28:45.766Z,50.30
2019-03-19T15:31:15.503Z,49.70
2019-03-19T15:33:44.568Z,50.20
2019-03-19T15:36:13.664Z,49.00
2019-03-19T15:38:42.769Z,49.50
2019-03-19T15:41:11.797Z,50.30
2019-03-19T15:43:40.951Z,50.70
2019-03-19T15:46:10.079Z,51.40
2019-03-19T15:48:39.141Z,50.60
2019-03-19T15:51:08.254Z,49.70
2019-03-19T15:53:37.267Z,50.90
2019-03-19T15:56:06.425Z,50.60
2019-03-19T15:58:35.528Z,53.60
2019-03-19T16:01:04.515Z,53.80
2019-03-19T16:03:33.597Z,52.40
2019-03-19T16:06:02.683Z,50.80
2019-03-19T16:08:31.838Z,51.60
2019-03-19T16:11:00.909Z,52.50
2019-03-19T16:13:30.045Z,52.40
2019-03-19T16:15:59.169Z,51.40
2019-03-19T16:18:28.269Z,50.90
2019-03-19T16:20:57.318Z,49.80
2019-03-19T16:23:26.421Z,50.90
2019-03-19T16:25:55.499Z,50.50
2019-03-19T16:28:24.643Z,51.70
2019-03-19T16:30:54.403Z,53.20
2019-03-19T16:33:24.926Z,54.30
2019-03-19T16:35:54.106Z,53.10
2019-03-19T16:38:23.231Z,55.40
2019-03-19T16:40:52.476Z,55.40
2019-03-19T16:43:21.650Z,54.70
2019-03-19T16:45:50.703Z,55.80
2019-03-19T16:48:19.787Z,55.80
2019-03-19T16:50:48.852Z,59.20
2019-03-19T16:53:18.225Z,61.70
2019-03-19T16:55:52.309Z,64.90
2019-03-19T16:58:21.413Z,69.30
2019-03-19T17:00:51.283Z,75.50
2019-03-19T17:03:20.836Z,79.30
2019-03-19T17:05:51.358Z,82.90
2019-03-19T17:08:21.183Z,85.10
2019-03-19T17:10:50.220Z,84.90
2019-03-19T17:13:20.277Z,87.00
2019-03-19T17:15:53.818Z,88.50
2019-03-19T17:18:23.268Z,88.80
2019-03-19T17:20:52.559Z,89.80
2019-03-19T17:23:21.694Z,90.80
2019-03-19T17:25:50.812Z,91.90
2019-03-19T17:28:22.649Z,91.90
2019-03-19T17:30:51.499Z,92.20
2019-03-19T17:33:20.523Z,92.60
2019-03-19T17:35:50.761Z,93.20
2019-03-19T17:38:19.825Z,93.20
2019-03-19T17:40:48.823Z,93.40
2019-03-19T17:43:17.879Z,94.00
2019-03-19T17:45:46.983Z,94.80
2019-03-19T17:48:16.662Z,95.20
2019-03-19T17:50:46.410Z,95.90
2019-03-19T17:53:15.511Z,96.30
2019-03-19T17:55:44.504Z,96.30
2019-03-19T17:58:13.637Z,96.50
2019-03-19T18:00:43.837Z,96.50
2019-03-19T18:03:13.068Z,96.40
2019-03-19T18:05:42.223Z,97.00
2019-03-19T18:08:11.278Z,97.30
2019-03-19T18:10:40.386Z,97.80
2019-03-19T18:13:10.527Z,98.30
2019-03-19T18:15:41.254Z,99.10
2019-03-19T18:18:10.726Z,99.90
2019-03-19T18:20:39.871Z,99.90
2019-03-19T18:23:08.948Z,99.90
2019-03-19T18:25:38.100Z,99.90
2019-03-19T18:28:07.157Z,99.90
2019-03-19T18:30:36.177Z,99.90
2019-03-19T18:33:05.162Z,99.90
2019-03-19T18:35:35.043Z,99.90
2019-03-19T18:38:04.056Z,99.90
2019-03-19T18:40:33.109Z,99.90
2019-03-19T18:43:02.401Z,99.90
2019-03-19T18:45:31.404Z,99.90
2019-03-19T18:48:00.382Z,99.90
2019-03-19T18:50:31.806Z,99.90
2019-03-19T18:53:00.849Z,99.90
2019-03-19T18:55:30.123Z,99.90
2019-03-19T18:57:59.346Z,99.90
2019-03-19T19:00:28.565Z,99.90
2019-03-19T19:02:57.797Z,99.90
2019-03-19T19:05:26.874Z,99.90
2019-03-19T19:07:57.219Z,99.90
2019-03-19T19:10:26.720Z,99.90
2019-03-19T19:12:55.828Z,99.90
2019-03-19T19:15:26.919Z,99.90
2019-03-19T19:17:56.053Z,99.90
2019-03-19T19:20:25.969Z,99.90
2019-03-19T19:22:55.022Z,99.90
2019-03-19T19:25:25.044Z,99.90
2019-03-19T19:27:54.219Z,99.90
2019-03-19T19:30:23.243Z,99.90
2019-03-19T19:33:00.813Z,99.90
2019-03-19T19:35:23.362Z,99.90
2019-03-19T19:37:52.575Z,99.90
2019-03-19T19:40:22.820Z,99.90
2019-03-19T19:42:51.948Z,99.90
2019-03-19T19:45:21.343Z,99.90
2019-03-19T19:47:50.420Z,99.90
2019-03-19T19:50:19.514Z,99.90
2019-03-19T19:52:48.629Z,99.90
2019-03-19T19:55:17.645Z,99.90
2019-03-19T19:57:49.014Z,99.90
2019-03-19T20:00:18.360Z,99.90
2019-03-19T20:02:47.480Z,99.90
2019-03-19T20:05:16.617Z,99.90
2019-03-19T20:07:45.823Z,99.90
2019-03-19T20:10:16.556Z,99.90
2019-03-19T20:12:45.677Z,99.90
2019-03-19T20:15:14.899Z,99.90
2019-03-19T20:17:43.983Z,99.90
2019-03-19T20:20:14.688Z,99.90
2019-03-19T20:22:44.803Z,99.90
2019-03-19T20:25:14.007Z,99.90
2019-03-19T20:27:43.208Z,99.90
2019-03-19T20:30:14.614Z,99.90
2019-03-19T20:32:43.782Z,99.90
2019-03-19T20:35:13.070Z,99.90
2019-03-19T20:37:42.172Z,99.90
2019-03-19T20:40:11.917Z,99.90
2019-03-19T20:42:41.171Z,99.90
2019-03-19T20:45:11.035Z,99.90
2019-03-19T20:47:40.171Z,99.90
2019-03-19T20:50:12.528Z,99.90
2019-03-19T20:52:41.979Z,99.90
2019-03-19T20:55:11.343Z,99.90
2019-03-19T20:57:40.503Z,99.90
2019-03-19T21:00:12.023Z,99.90
2019-03-19T21:02:41.351Z,99.90
2019-03-19T21:05:10.438Z,99.90
2019-03-19T21:07:40.367Z,99.90
2019-03-19T21:10:11.909Z,99.90
2019-03-19T21:12:41.069Z,99.90
2019-03-19T21:15:15.875Z,99.90
2019-03-19T21:17:44.908Z,99.90
2019-03-19T21:20:14.042Z,99.90
2019-03-19T21:22:43.563Z,99.90
2019-03-19T21:25:12.698Z,99.90
2019-03-19T21:27:41.838Z,99.90
2019-03-19T21:30:11.428Z,99.90
2019-03-19T21:32:40.687Z,99.90
2019-03-19T21:35:09.929Z,99.90
2019-03-19T21:37:39.102Z,99.90
2019-03-19T21:40:10.863Z,99.90
2019-03-19T21:42:40.261Z,99.90
2019-03-19T21:45:10.270Z,99.90
2019-03-19T21:47:40.140Z,99.90
2019-03-19T21:50:10.691Z,99.90
2019-03-19T21:52:40.600Z,99.90
2019-03-19T21:55:09.870Z,99.90
2019-03-19T21:57:38.936Z,99.90
2019-03-19T22:00:10.862Z,99.90
2019-03-19T22:02:42.223Z,99.90
2019-03-19T22:05:11.391Z,99.90
2019-03-19T22:07:40.523Z,99.90
2019-03-19T22:10:11.666Z,99.90
2019-03-19T22:12:40.858Z,99.90
2019-03-19T22:15:13.589Z,99.90
2019-03-19T22:17:43.161Z,99.90
2019-03-19T22:20:12.214Z,99.90
2019-03-19T22:22:41.133Z,99.90
2019-03-19T22:25:10.846Z,99.90
2019-03-19T22:27:39.893Z,99.90
2019-03-19T22:30:10.965Z,99.90
2019-03-19T22:32:40.225Z,99.90
2019-03-19T22:35:09.201Z,99.90
2019-03-19T22:37:38.261Z,99.90
2019-03-19T22:40:08.844Z,99.90
2019-03-19T22:42:37.912Z,99.90
2019-03-19T22:45:08.195Z,99.90
2019-03-19T22:47:38.388Z,99.90
2019-03-19T22:50:08.186Z,99.90
2019-03-19T22:52:38.019Z,99.90
2019-03-19T22:55:07.934Z,99.90
2019-03-19T22:57:37.187Z,99.90
2019-03-19T23:00:09.080Z,99.90
2019-03-19T23:02:38.153Z,99.90
2019-03-19T23:05:07.173Z,99.90
2019-03-19T23:07:36.092Z,99.90
2019-03-19T23:10:05.466Z,99.90
2019-03-19T23:12:35.224Z,99.90
2019-03-19T23:15:04.452Z,99.90
2019-03-19T23:17:33.939Z,99.90
2019-03-19T23:20:02.966Z,99.90
2019-03-19T23:22:31.832Z,99.90
2019-03-19T23:25:01.135Z,99.90
2019-03-19T23:27:30.247Z,99.90
2019-03-19T23:29:59.254Z,99.90
2019-03-19T23:32:28.259Z,99.90
2019-03-19T23:34:57.297Z,99.90
2019-03-19T23:37:26.624Z,99.90
2019-03-19T23:39:55.601Z,99.90
2019-03-19T23:42:24.568Z,99.90
2019-03-19T23:44:54.300Z,99.90
2019-03-19T23:47:23.388Z,99.90
2019-03-19T23:49:52.441Z,99.90
2019-03-19T23:52:21.521Z,99.90
2019-03-19T23:54:51.843Z,99.90
2019-03-19T23:57:21.716Z,99.90
2019-03-19T23:59:50.642Z,99.90
